createdAt,value
2019-02-21T00:02:06.672Z,14.63
2019-02-21T00:04:55.759Z,16.25
2019-02-21T00:07:45.121Z,15.90
2019-02-21T00:10:34.241Z,14.68
2019-02-21T00:13:23.243Z,14.95
2019-02-21T00:16:12.363Z,15.65
2019-02-21T00:19:02.088Z,15.20
2019-02-21T00:21:51.566Z,15.83
2019-02-21T00:24:40.510Z,15.72
2019-02-21T00:27:29.586Z,14.70
2019-02-21T00:30:19.070Z,16.27
2019-02-21T00:33:07.720Z,16.02
2019-02-21T00:35:56.619Z,15.60
2019-02-21T00:38:45.814Z,15.85
2019-02-21T00:41:34.931Z,17.15
2019-02-21T00:44:24.595Z,14.60
2019-02-21T00:47:13.652Z,14.60
2019-02-21T00:50:03.134Z,15.15
2019-02-21T00:52:52.312Z,17.73
2019-02-21T00:55:41.670Z,14.90
2019-02-21T00:58:30.743Z,15.20
2019-02-21T01:01:20.944Z,15.40
2019-02-21T01:04:11.432Z,15.15
2019-02-21T01:07:00.796Z,15.20
2019-02-21T01:09:50.455Z,16.32
2019-02-21T01:12:39.264Z,14.78
2019-02-21T01:15:29.015Z,15.80
2019-02-21T01:18:18.069Z,15.23
2019-02-21T01:21:07.136Z,15.08
2019-02-21T01:23:55.871Z,14.75
2019-02-21T01:26:45.371Z,14.85
2019-02-21T01:29:34.530Z,15.43
2019-02-21T01:32:23.379Z,15.43
2019-02-21T01:35:12.835Z,15.78
2019-02-21T01:38:01.622Z,14.68
2019-02-21T01:40:51.206Z,14.75
2019-02-21T01:43:40.879Z,14.25
2019-02-21T01:46:30.153Z,14.70
2019-02-21T01:49:19.308Z,15.53
2019-02-21T01:52:08.489Z,16.02
2019-02-21T01:54:58.069Z,16.65
2019-02-21T01:57:47.529Z,14.90
2019-02-21T02:00:37.341Z,14.63
2019-02-21T02:03:26.406Z,15.18
2019-02-21T02:06:15.455Z,15.38
2019-02-21T02:09:06.819Z,16.17
2019-02-21T02:11:56.249Z,14.55
2019-02-21T02:14:45.402Z,15.40
2019-02-21T02:17:34.888Z,15.65
2019-02-21T02:20:24.399Z,15.78
2019-02-21T02:23:13.734Z,15.75
2019-02-21T02:26:02.705Z,14.63
2019-02-21T02:28:51.351Z,16.57
2019-02-21T02:31:40.407Z,16.50
2019-02-21T02:34:29.756Z,16.10
2019-02-21T02:37:19.567Z,16.27
2019-02-21T02:40:08.998Z,16.77
2019-02-21T02:42:58.308Z,15.78
2019-02-21T02:45:47.224Z,17.07
2019-02-21T02:48:36.466Z,18.23
2019-02-21T02:51:25.263Z,17.95
2019-02-21T02:54:14.769Z,16.60
2019-02-21T02:57:04.423Z,18.42
2019-02-21T02:59:53.724Z,18.57
2019-02-21T03:02:42.176Z,18.50
2019-02-21T03:05:31.343Z,17.98
2019-02-21T03:08:20.307Z,18.17
2019-02-21T03:11:09.773Z,18.48
2019-02-21T03:13:58.629Z,18.05
2019-02-21T03:16:47.697Z,18.17
2019-02-21T03:19:36.550Z,18.00
2019-02-21T03:22:25.923Z,18.37
2019-02-21T03:25:14.723Z,19.67
2019-02-21T03:28:03.545Z,18.00
2019-02-21T03:30:52.783Z,18.73
2019-02-21T03:33:41.490Z,17.65
2019-02-21T03:36:30.952Z,18.62
2019-02-21T03:39:20.299Z,18.42
2019-02-21T03:42:10.205Z,18.00
2019-02-21T03:44:58.991Z,18.07
2019-02-21T03:47:48.471Z,17.95
2019-02-21T03:50:37.995Z,16.85
2019-02-21T03:53:26.765Z,17.92
2019-02-21T03:56:15.939Z,18.48
2019-02-21T03:59:05.009Z,19.50
2019-02-21T04:02:04.515Z,17.80
2019-02-21T04:04:44.561Z,17.40
2019-02-21T04:07:33.839Z,19.25
2019-02-21T04:10:23.508Z,17.90
2019-02-21T04:13:14.933Z,17.40
2019-02-21T04:16:02.819Z,19.70
2019-02-21T04:18:51.944Z,17.95
2019-02-21T04:21:40.658Z,18.10
2019-02-21T04:24:29.990Z,18.73
2019-02-21T04:27:19.022Z,18.42
2019-02-21T04:30:08.605Z,19.00
2019-02-21T04:32:58.264Z,19.05
2019-02-21T04:35:48.170Z,19.60
2019-02-21T04:38:36.802Z,18.05
2019-02-21T04:41:25.571Z,17.62
2019-02-21T04:44:14.634Z,18.15
2019-02-21T04:47:03.925Z,18.75
2019-02-21T04:49:53.179Z,19.30
2019-02-21T04:52:43.078Z,19.15
2019-02-21T04:55:32.427Z,18.82
2019-02-21T04:58:21.722Z,19.00
2019-02-21T05:01:10.871Z,17.65
2019-02-21T05:04:00.237Z,18.90
2019-02-21T05:06:49.511Z,18.80
2019-02-21T05:09:38.591Z,19.00
2019-02-21T05:12:27.270Z,17.32
2019-02-21T05:15:16.390Z,18.60
2019-02-21T05:18:05.770Z,18.65
2019-02-21T05:20:55.036Z,19.00
2019-02-21T05:23:43.923Z,19.77
2019-02-21T05:26:37.874Z,20.40
2019-02-21T05:29:26.620Z,20.45
2019-02-21T05:32:40.871Z,18.50
2019-02-21T05:36:23.510Z,20.55
2019-02-21T05:39:16.539Z,19.42
2019-02-21T05:42:10.518Z,19.55
2019-02-21T05:45:19.427Z,20.62
2019-02-21T05:48:24.723Z,18.98
2019-02-21T05:51:18.140Z,19.60
2019-02-21T05:54:12.752Z,18.52
2019-02-21T05:57:03.355Z,19.42
2019-02-21T06:00:10.269Z,18.90
2019-02-21T06:03:16.638Z,18.65
2019-02-21T06:06:07.383Z,19.42
2019-02-21T06:08:57.836Z,17.73
2019-02-21T06:11:59.950Z,19.50
2019-02-21T06:15:07.936Z,18.70
2019-02-21T06:17:59.030Z,18.55
2019-02-21T06:20:49.940Z,18.62
2019-02-21T06:23:52.217Z,18.37
2019-02-21T06:26:57.312Z,20.43
2019-02-21T06:29:50.857Z,18.60
2019-02-21T06:32:40.813Z,19.07
2019-02-21T06:35:30.604Z,19.62
2019-02-21T06:38:19.299Z,18.62
2019-02-21T06:41:08.613Z,18.95
2019-02-21T06:43:57.651Z,18.25
2019-02-21T06:46:47.356Z,18.92
2019-02-21T06:49:36.412Z,19.35
2019-02-21T06:52:25.714Z,19.65
2019-02-21T06:55:14.765Z,19.25
2019-02-21T06:58:03.724Z,18.70
2019-02-21T07:00:52.619Z,20.43
2019-02-21T07:03:42.365Z,19.87
2019-02-21T07:06:32.443Z,19.32
2019-02-21T07:09:21.960Z,19.87
2019-02-21T07:12:10.990Z,18.77
2019-02-21T07:14:59.845Z,19.27
2019-02-21T07:17:49.842Z,19.07
2019-02-21T07:20:39.795Z,19.75
2019-02-21T07:23:40.559Z,18.12
2019-02-21T07:26:19.598Z,18.48
2019-02-21T07:29:08.453Z,19.10
2019-02-21T07:31:57.157Z,19.80
2019-02-21T07:34:46.471Z,18.67
2019-02-21T07:37:35.714Z,18.40
2019-02-21T07:40:26.699Z,18.95
2019-02-21T07:43:15.787Z,19.73
2019-02-21T07:46:06.965Z,18.70
2019-02-21T07:48:55.648Z,18.85
2019-02-21T07:51:44.416Z,19.12
2019-02-21T07:54:34.124Z,18.35
2019-02-21T07:57:23.209Z,18.32
2019-02-21T08:00:14.203Z,19.00
2019-02-21T08:03:03.276Z,18.30
2019-02-21T08:05:52.843Z,18.75
2019-02-21T08:08:44.825Z,19.92
2019-02-21T08:11:32.502Z,19.90
2019-02-21T08:14:21.521Z,18.23
2019-02-21T08:17:10.768Z,18.20
2019-02-21T08:20:07.909Z,20.37
2019-02-21T08:22:50.303Z,20.60
2019-02-21T08:25:39.212Z,18.73
2019-02-21T08:28:28.639Z,20.25
2019-02-21T08:31:18.452Z,20.50
2019-02-21T08:34:11.581Z,20.37
2019-02-21T08:37:00.849Z,19.85
2019-02-21T08:39:49.895Z,20.20
2019-02-21T08:42:38.775Z,19.73
2019-02-21T08:45:27.865Z,19.92
2019-02-21T08:48:17.210Z,20.80
2019-02-21T08:51:06.422Z,18.90
2019-02-21T08:53:56.152Z,19.85
2019-02-21T08:56:45.728Z,19.70
2019-02-21T08:59:35.075Z,19.80
2019-02-21T09:02:24.372Z,19.57
2019-02-21T09:05:14.214Z,19.48
2019-02-21T09:08:03.530Z,19.60
2019-02-21T09:10:52.486Z,19.27
2019-02-21T09:13:41.926Z,20.20
2019-02-21T09:16:30.931Z,19.82
2019-02-21T09:19:20.300Z,20.10
2019-02-21T09:22:09.139Z,18.42
2019-02-21T09:24:58.636Z,20.20
2019-02-21T09:27:47.981Z,21.07
2019-02-21T09:30:37.481Z,19.55
2019-02-21T09:33:26.691Z,19.80
2019-02-21T09:36:15.824Z,20.17
2019-02-21T09:39:05.508Z,20.25
2019-02-21T09:41:54.293Z,19.20
2019-02-21T09:44:43.415Z,20.37
2019-02-21T09:47:33.047Z,18.55
2019-02-21T09:50:22.975Z,20.32
2019-02-21T09:53:12.184Z,19.40
2019-02-21T09:56:01.444Z,18.42
2019-02-21T09:58:50.717Z,19.45
2019-02-21T10:01:39.959Z,20.10
2019-02-21T10:04:32.088Z,19.30
2019-02-21T10:07:19.614Z,19.02
2019-02-21T10:10:20.938Z,18.80
2019-02-21T10:13:13.048Z,19.30
2019-02-21T10:16:01.047Z,19.12
2019-02-21T10:18:49.573Z,19.95
2019-02-21T10:21:38.973Z,18.75
2019-02-21T10:24:28.074Z,21.12
2019-02-21T10:27:17.315Z,18.60
2019-02-21T10:30:10.536Z,19.00
2019-02-21T10:33:01.063Z,19.98
2019-02-21T10:35:50.335Z,20.70
2019-02-21T10:38:39.441Z,20.32
2019-02-21T10:41:28.346Z,20.35
2019-02-21T10:44:17.939Z,19.55
2019-02-21T10:47:07.395Z,20.05
2019-02-21T10:49:56.679Z,20.50
2019-02-21T10:52:45.878Z,20.15
2019-02-21T10:55:35.325Z,20.85
2019-02-21T10:58:24.283Z,19.60
2019-02-21T11:01:13.488Z,20.95
2019-02-21T11:04:02.720Z,20.27
2019-02-21T11:06:51.375Z,22.35
2019-02-21T11:09:40.630Z,20.00
2019-02-21T11:12:29.699Z,19.80
2019-02-21T11:15:22.560Z,20.40
2019-02-21T11:18:11.826Z,19.65
2019-02-21T11:21:00.692Z,20.50
2019-02-21T11:23:49.865Z,21.33
2019-02-21T11:26:39.446Z,22.22
2019-02-21T11:29:28.356Z,20.50
2019-02-21T11:32:17.783Z,19.70
2019-02-21T11:35:08.137Z,20.45
2019-02-21T11:37:57.535Z,20.00
2019-02-21T11:40:47.112Z,19.48
2019-02-21T11:43:35.843Z,19.35
2019-02-21T11:46:25.041Z,22.15
2019-02-21T11:49:13.552Z,22.05
2019-02-21T11:52:09.796Z,21.60
2019-02-21T11:54:53.111Z,21.45
2019-02-21T11:57:42.936Z,22.17
2019-02-21T12:00:32.594Z,22.55
2019-02-21T12:03:22.187Z,23.40
2019-02-21T12:06:11.007Z,21.93
2019-02-21T12:09:00.420Z,21.87
2019-02-21T12:11:49.591Z,21.05
2019-02-21T12:14:38.659Z,20.57
2019-02-21T12:17:27.505Z,21.30
2019-02-21T12:20:18.670Z,20.70
2019-02-21T12:23:07.980Z,21.30
2019-02-21T12:25:57.268Z,20.20
2019-02-21T12:28:46.950Z,21.40
2019-02-21T12:31:35.775Z,20.92
2019-02-21T12:34:25.089Z,21.50
2019-02-21T12:37:14.503Z,21.97
2019-02-21T12:40:05.153Z,20.88
2019-02-21T12:42:53.985Z,21.07
2019-02-21T12:45:44.403Z,21.25
2019-02-21T12:48:33.313Z,22.82
2019-02-21T12:51:22.634Z,21.93
2019-02-21T12:54:11.497Z,23.10
2019-02-21T12:57:00.534Z,22.20
2019-02-21T12:59:49.298Z,22.27
2019-02-21T13:02:38.694Z,23.60
2019-02-21T13:05:27.202Z,24.12
2019-02-21T13:08:16.325Z,23.62
2019-02-21T13:11:05.556Z,23.50
2019-02-21T13:13:54.744Z,23.38
2019-02-21T13:16:44.350Z,23.42
2019-02-21T13:19:33.697Z,22.60
2019-02-21T13:22:22.958Z,23.40
2019-02-21T13:25:18.356Z,22.73
2019-02-21T13:28:08.056Z,24.00
2019-02-21T13:30:56.959Z,22.65
2019-02-21T13:33:46.111Z,22.62
2019-02-21T13:36:35.032Z,23.77
2019-02-21T13:39:24.524Z,23.12
2019-02-21T13:42:13.661Z,22.95
2019-02-21T13:45:02.551Z,24.67
2019-02-21T13:47:52.079Z,23.10
2019-02-21T13:50:41.038Z,24.98
2019-02-21T13:53:30.252Z,24.67
2019-02-21T13:56:19.151Z,25.05
2019-02-21T13:59:08.482Z,22.02
2019-02-21T14:01:57.525Z,22.62
2019-02-21T14:04:46.812Z,22.32
2019-02-21T14:07:37.368Z,23.22
2019-02-21T14:10:26.984Z,22.40
2019-02-21T14:13:15.854Z,22.05
2019-02-21T14:16:05.151Z,23.00
2019-02-21T14:18:54.497Z,23.02
2019-02-21T14:21:43.928Z,22.75
2019-02-21T14:24:36.809Z,22.50
2019-02-21T14:27:23.165Z,21.77
2019-02-21T14:30:20.887Z,23.00
2019-02-21T14:33:10.249Z,22.98
2019-02-21T14:35:59.457Z,24.87
2019-02-21T14:38:48.482Z,26.55
2019-02-21T14:41:38.070Z,25.15
2019-02-21T14:44:26.949Z,26.33
2019-02-21T14:47:16.098Z,25.15
2019-02-21T14:50:08.690Z,26.82
2019-02-21T14:52:57.919Z,27.22
2019-02-21T14:55:47.591Z,25.90
2019-02-21T14:58:36.352Z,25.77
2019-02-21T15:01:25.317Z,27.07
2019-02-21T15:04:14.659Z,27.35
2019-02-21T15:07:06.514Z,29.27
2019-02-21T15:09:54.452Z,28.40
2019-02-21T15:12:43.659Z,28.73
2019-02-21T15:15:32.685Z,28.23
2019-02-21T15:18:22.152Z,27.80
2019-02-21T15:21:11.503Z,27.70
2019-02-21T15:24:00.826Z,28.95
2019-02-21T15:26:50.302Z,27.50
2019-02-21T15:29:41.605Z,25.70
2019-02-21T15:32:30.487Z,25.70
2019-02-21T15:35:19.943Z,25.25
2019-02-21T15:38:19.621Z,26.85
2019-02-21T15:40:59.739Z,25.60
2019-02-21T15:43:48.754Z,26.45
2019-02-21T15:46:37.534Z,30.72
2019-02-21T15:49:27.291Z,26.55
2019-02-21T15:52:22.150Z,26.50
2019-02-21T15:55:19.036Z,28.65
2019-02-21T15:58:08.198Z,26.42
2019-02-21T16:00:57.478Z,25.70
2019-02-21T16:03:46.830Z,26.40
2019-02-21T16:06:37.977Z,26.75
2019-02-21T16:09:26.878Z,30.50
2019-02-21T16:12:16.957Z,30.30
2019-02-21T16:15:16.230Z,29.60
2019-02-21T16:18:04.358Z,22.95
2019-02-21T16:20:53.941Z,24.80
2019-02-21T16:23:42.753Z,27.02
2019-02-21T16:26:31.962Z,27.93
2019-02-21T16:29:21.336Z,24.47
2019-02-21T16:32:10.908Z,24.40
2019-02-21T16:35:00.156Z,22.85
2019-02-21T16:37:49.242Z,21.68
2019-02-21T16:40:38.151Z,22.80
2019-02-21T16:43:27.575Z,21.48
2019-02-21T16:46:16.713Z,20.32
2019-02-21T16:49:05.909Z,25.62
2019-02-21T16:51:54.965Z,19.42
2019-02-21T16:54:43.724Z,21.25
2019-02-21T16:57:34.215Z,21.62
2019-02-21T17:00:25.756Z,19.32
2019-02-21T17:03:15.230Z,20.30
2019-02-21T17:06:04.389Z,20.50
2019-02-21T17:08:53.252Z,20.72
2019-02-21T17:11:42.123Z,19.37
2019-02-21T17:14:31.273Z,21.57
2019-02-21T17:17:20.511Z,19.32
2019-02-21T17:20:14.074Z,18.82
2019-02-21T17:23:03.251Z,18.10
2019-02-21T17:25:56.956Z,19.92
2019-02-21T17:28:45.912Z,20.30
2019-02-21T17:31:37.254Z,17.55
2019-02-21T17:34:26.116Z,19.77
2019-02-21T17:37:24.661Z,16.17
2019-02-21T17:40:14.057Z,16.90
2019-02-21T17:43:03.170Z,13.40
2019-02-21T17:45:52.385Z,15.72
2019-02-21T17:48:41.718Z,15.45
2019-02-21T17:51:30.929Z,14.20
2019-02-21T17:54:19.991Z,18.62
2019-02-21T17:57:09.361Z,16.80
2019-02-21T17:59:58.391Z,14.78
2019-02-21T18:02:47.647Z,18.15
2019-02-21T18:05:36.976Z,15.28
2019-02-21T18:08:25.947Z,18.55
2019-02-21T18:11:15.468Z,16.32
2019-02-21T18:14:04.806Z,19.75
2019-02-21T18:16:53.939Z,17.57
2019-02-21T18:19:43.101Z,18.62
2019-02-21T18:22:32.273Z,18.05
2019-02-21T18:25:38.853Z,18.35
2019-02-21T18:28:28.106Z,16.20
2019-02-21T18:31:17.208Z,15.83
2019-02-21T18:34:06.257Z,15.05
2019-02-21T18:36:55.625Z,15.32
2019-02-21T18:39:44.720Z,17.52
2019-02-21T18:42:33.654Z,16.80
2019-02-21T18:45:23.022Z,14.33
2019-02-21T18:48:12.307Z,21.93
2019-02-21T18:51:01.656Z,14.30
2019-02-21T18:53:50.827Z,14.10
2019-02-21T18:56:39.787Z,16.93
2019-02-21T18:59:31.674Z,23.67
2019-02-21T19:02:19.926Z,14.80
2019-02-21T19:05:09.968Z,13.88
2019-02-21T19:08:05.251Z,18.42
2019-02-21T19:10:49.734Z,14.35
2019-02-21T19:13:38.819Z,14.40
2019-02-21T19:16:28.486Z,15.80
2019-02-21T19:19:17.695Z,17.62
2019-02-21T19:22:07.115Z,16.52
2019-02-21T19:24:56.256Z,17.52
2019-02-21T19:27:45.449Z,15.28
2019-02-21T19:30:45.671Z,15.25
2019-02-21T19:33:34.565Z,21.07
2019-02-21T19:36:25.857Z,13.83
2019-02-21T19:39:14.706Z,22.27
2019-02-21T19:42:03.589Z,14.15
2019-02-21T19:44:52.667Z,17.27
2019-02-21T19:47:42.209Z,16.62
2019-02-21T19:50:31.256Z,18.62
2019-02-21T19:53:20.544Z,19.75
2019-02-21T19:56:09.908Z,19.55
2019-02-21T19:58:59.116Z,15.90
2019-02-21T20:01:48.264Z,21.48
2019-02-21T20:04:37.027Z,19.50
2019-02-21T20:07:26.277Z,15.58
2019-02-21T20:10:16.083Z,17.87
2019-02-21T20:13:06.860Z,16.23
2019-02-21T20:15:55.784Z,16.30
2019-02-21T20:18:44.793Z,20.12
2019-02-21T20:21:34.117Z,19.02
2019-02-21T20:24:23.075Z,16.93
2019-02-21T20:27:12.383Z,18.57
2019-02-21T20:30:01.560Z,22.50
2019-02-21T20:32:50.922Z,17.95
2019-02-21T20:35:39.369Z,20.00
2019-02-21T20:38:32.061Z,19.00
2019-02-21T20:41:19.866Z,20.95
2019-02-21T20:44:08.595Z,24.45
2019-02-21T20:46:57.778Z,23.73
2019-02-21T20:49:46.870Z,24.20
2019-02-21T20:52:35.923Z,26.55
2019-02-21T20:55:25.199Z,24.82
2019-02-21T20:58:14.147Z,24.27
2019-02-21T21:01:03.187Z,27.27
2019-02-21T21:03:52.271Z,24.35
2019-02-21T21:06:41.540Z,25.50
2019-02-21T21:09:30.542Z,24.90
2019-02-21T21:12:19.576Z,28.60
2019-02-21T21:15:11.585Z,26.45
2019-02-21T21:18:01.078Z,25.77
2019-02-21T21:20:50.438Z,27.40
2019-02-21T21:23:40.227Z,26.55
2019-02-21T21:26:29.366Z,27.85
2019-02-21T21:29:18.775Z,27.75
2019-02-21T21:32:08.036Z,28.80
2019-02-21T21:34:56.784Z,26.37
2019-02-21T21:37:46.169Z,26.97
2019-02-21T21:40:34.685Z,28.15
2019-02-21T21:43:24.090Z,27.62
2019-02-21T21:46:13.120Z,25.40
2019-02-21T21:49:02.172Z,24.47
2019-02-21T21:51:50.799Z,26.68
2019-02-21T21:54:40.047Z,26.35
2019-02-21T21:57:29.993Z,23.75
2019-02-21T22:00:25.164Z,25.57
2019-02-21T22:03:14.301Z,26.87
2019-02-21T22:06:03.166Z,28.38
2019-02-21T22:08:52.432Z,25.02
2019-02-21T22:11:41.543Z,24.00
2019-02-21T22:14:30.877Z,35.33
2019-02-21T22:17:20.152Z,25.88
2019-02-21T22:20:09.973Z,28.07
2019-02-21T22:22:58.981Z,25.60
2019-02-21T22:25:49.208Z,25.60
2019-02-21T22:28:38.757Z,25.82
2019-02-21T22:31:27.733Z,25.00
2019-02-21T22:34:16.473Z,25.30
2019-02-21T22:37:05.527Z,25.15
2019-02-21T22:39:54.903Z,27.05
2019-02-21T22:42:44.176Z,27.42
2019-02-21T22:45:32.726Z,25.32
2019-02-21T22:48:21.994Z,25.85
2019-02-21T22:51:10.713Z,27.07
2019-02-21T22:53:59.921Z,27.00
2019-02-21T22:56:48.938Z,26.00
2019-02-21T22:59:38.462Z,27.60
2019-02-21T23:02:28.533Z,26.33
2019-02-21T23:05:24.522Z,26.70
2019-02-21T23:08:21.114Z,27.37
2019-02-21T23:11:09.935Z,26.20
2019-02-21T23:13:59.753Z,28.80
2019-02-21T23:16:49.240Z,28.05
2019-02-21T23:19:38.393Z,28.60
2019-02-21T23:22:27.050Z,29.27
2019-02-21T23:25:16.599Z,28.20
2019-02-21T23:28:05.857Z,29.77
2019-02-21T23:30:55.269Z,30.12
2019-02-21T23:33:46.048Z,27.80
2019-02-21T23:36:35.348Z,29.02
2019-02-21T23:39:23.844Z,28.87
2019-02-21T23:42:13.271Z,27.90
2019-02-21T23:45:02.855Z,27.58
2019-02-21T23:47:52.423Z,28.70
2019-02-21T23:50:41.958Z,27.62
2019-02-21T23:53:31.267Z,30.43
2019-02-21T23:56:20.145Z,28.55
2019-02-21T23:59:09.603Z,29.30
